sensor_id;sensor_type;location;lat;lon;timestamp;temperature;humidity
16066;DHT22;8137;48.952;8.970;2022-12-11T00:02:19;-2.80;99.90
16066;DHT22;8137;48.952;8.970;2022-12-11T00:04:44;-2.90;99.90
16066;DHT22;8137;48.952;8.970;2022-12-11T00:07:10;-2.90;99.90
16066;DHT22;8137;48.952;8.970;2022-12-11T00:09:36;-2.90;99.90
16066;DHT22;8137;48.952;8.970;2022-12-11T00:12:01;-2.90;99.90
16066;DHT22;8137;48.952;8.970;2022-12-11T00:14:28;-2.90;99.90
16066;DHT22;8137;48.952;8.970;2022-12-11T00:16:53;-2.90;99.90
16066;DHT22;8137;48.952;8.970;2022-12-11T00:19:19;-2.90;99.90
16066;DHT22;8137;48.952;8.970;2022-12-11T00:21:45;-2.90;99.90
16066;DHT22;8137;48.952;8.970;2022-12-11T00:24:11;-2.90;99.90
16066;DHT22;8137;48.952;8.970;2022-12-11T00:26:37;-2.90;99.90
16066;DHT22;8137;48.952;8.970;2022-12-11T00:29:03;-2.90;99.90
16066;DHT22;8137;48.952;8.970;2022-12-11T00:31:28;-2.90;99.90
16066;DHT22;8137;48.952;8.970;2022-12-11T00:33:54;-2.90;99.90
16066;DHT22;8137;48.952;8.970;2022-12-11T00:36:25;-2.80;99.90
16066;DHT22;8137;48.952;8.970;2022-12-11T00:38:51;-2.80;99.90
16066;DHT22;8137;48.952;8.970;2022-12-11T00:41:18;-2.80;99.90
16066;DHT22;8137;48.952;8.970;2022-12-11T00:43:44;-2.80;99.90
16066;DHT22;8137;48.952;8.970;2022-12-11T00:46:10;-2.70;99.90
16066;DHT22;8137;48.952;8.970;2022-12-11T00:48:36;-2.70;99.90
16066;DHT22;8137;48.952;8.970;2022-12-11T00:51:02;-2.70;99.90
16066;DHT22;8137;48.952;8.970;2022-12-11T00:53:28;-2.50;99.90
16066;DHT22;8137;48.952;8.970;2022-12-11T00:55:53;-2.50;99.90
16066;DHT22;8137;48.952;8.970;2022-12-11T00:58:19;-2.50;99.90
16066;DHT22;8137;48.952;8.970;2022-12-11T01:00:45;-2.50;99.90
16066;DHT22;8137;48.952;8.970;2022-12-11T01:03:13;-2.50;99.90
16066;DHT22;8137;48.952;8.970;2022-12-11T01:05:38;-2.50;99.90
16066;DHT22;8137;48.952;8.970;2022-12-11T01:08:05;-2.50;99.90
16066;DHT22;8137;48.952;8.970;2022-12-11T01:10:31;-2.50;99.90
16066;DHT22;8137;48.952;8.970;2022-12-11T01:12:59;-2.40;99.90
16066;DHT22;8137;48.952;8.970;2022-12-11T01:15:30;-2.40;99.90
16066;DHT22;8137;48.952;8.970;2022-12-11T01:17:57;-2.30;99.90
16066;DHT22;8137;48.952;8.970;2022-12-11T01:20:24;-2.20;99.90
16066;DHT22;8137;48.952;8.970;2022-12-11T01:22:56;-2.10;99.90
16066;DHT22;8137;48.952;8.970;2022-12-11T01:25:23;-2.00;99.90
16066;DHT22;8137;48.952;8.970;2022-12-11T01:27:51;-1.90;99.90
16066;DHT22;8137;48.952;8.970;2022-12-11T01:30:17;-1.80;99.90
16066;DHT22;8137;48.952;8.970;2022-12-11T01:32:43;-1.80;99.90
16066;DHT22;8137;48.952;8.970;2022-12-11T01:35:10;-1.80;99.90
16066;DHT22;8137;48.952;8.970;2022-12-11T01:37:36;-1.70;99.90
16066;DHT22;8137;48.952;8.970;2022-12-11T01:40:04;-1.70;99.90
16066;DHT22;8137;48.952;8.970;2022-12-11T01:42:30;-1.70;99.90
16066;DHT22;8137;48.952;8.970;2022-12-11T01:45:24;-1.70;99.90
16066;DHT22;8137;48.952;8.970;2022-12-11T01:48:05;-1.70;99.90
16066;DHT22;8137;48.952;8.970;2022-12-11T01:50:35;-1.60;99.90
16066;DHT22;8137;48.952;8.970;2022-12-11T01:53:05;-1.60;99.90
16066;DHT22;8137;48.952;8.970;2022-12-11T01:55:33;-1.60;99.90
16066;DHT22;8137;48.952;8.970;2022-12-11T01:57:59;-1.60;99.90
16066;DHT22;8137;48.952;8.970;2022-12-11T02:00:26;-1.60;99.90
16066;DHT22;8137;48.952;8.970;2022-12-11T02:02:52;-1.50;99.90
16066;DHT22;8137;48.952;8.970;2022-12-11T02:05:17;-1.50;99.90
16066;DHT22;8137;48.952;8.970;2022-12-11T02:07:48;-1.40;99.90
16066;DHT22;8137;48.952;8.970;2022-12-11T02:10:15;-1.40;99.90
16066;DHT22;8137;48.952;8.970;2022-12-11T02:12:56;-1.40;99.90
16066;DHT22;8137;48.952;8.970;2022-12-11T02:15:34;-1.30;99.90
16066;DHT22;8137;48.952;8.970;2022-12-11T02:21:04;-1.40;99.90
16066;DHT22;8137;48.952;8.970;2022-12-11T02:23:57;-1.30;99.90
16066;DHT22;8137;48.952;8.970;2022-12-11T02:26:48;-1.20;99.90
16066;DHT22;8137;48.952;8.970;2022-12-11T02:29:23;-1.20;99.90
16066;DHT22;8137;48.952;8.970;2022-12-11T02:31:58;-1.20;99.90
16066;DHT22;8137;48.952;8.970;2022-12-11T02:34:36;-1.20;99.90
16066;DHT22;8137;48.952;8.970;2022-12-11T02:37:06;-1.20;99.90
16066;DHT22;8137;48.952;8.970;2022-12-11T02:39:35;-1.20;99.90
16066;DHT22;8137;48.952;8.970;2022-12-11T02:42:03;-1.20;99.90
16066;DHT22;8137;48.952;8.970;2022-12-11T02:44:32;-1.20;99.90
16066;DHT22;8137;48.952;8.970;2022-12-11T02:46:58;-1.20;99.90
16066;DHT22;8137;48.952;8.970;2022-12-11T02:49:25;-1.20;99.90
16066;DHT22;8137;48.952;8.970;2022-12-11T02:51:53;-1.20;99.90
16066;DHT22;8137;48.952;8.970;2022-12-11T02:54:30;-1.20;99.90
16066;DHT22;8137;48.952;8.970;2022-12-11T02:57:05;-1.20;99.90
16066;DHT22;8137;48.952;8.970;2022-12-11T02:59:39;-1.10;99.90
16066;DHT22;8137;48.952;8.970;2022-12-11T03:02:06;-1.20;99.90
16066;DHT22;8137;48.952;8.970;2022-12-11T03:04:33;-1.20;99.90
16066;DHT22;8137;48.952;8.970;2022-12-11T03:07:03;-1.20;99.90
16066;DHT22;8137;48.952;8.970;2022-12-11T03:09:39;-1.20;99.90
16066;DHT22;8137;48.952;8.970;2022-12-11T03:12:07;-1.20;99.90
16066;DHT22;8137;48.952;8.970;2022-12-11T03:14:35;-1.20;99.90
16066;DHT22;8137;48.952;8.970;2022-12-11T03:17:22;-1.20;99.90
16066;DHT22;8137;48.952;8.970;2022-12-11T03:28:15;-1.30;99.90
16066;DHT22;8137;48.952;8.970;2022-12-11T03:30:44;-1.30;99.90
16066;DHT22;8137;48.952;8.970;2022-12-11T03:33:16;-1.30;99.90
16066;DHT22;8137;48.952;8.970;2022-12-11T03:35:45;-1.30;99.90
16066;DHT22;8137;48.952;8.970;2022-12-11T03:38:20;-1.30;99.90
16066;DHT22;8137;48.952;8.970;2022-12-11T03:40:50;-1.30;99.90
16066;DHT22;8137;48.952;8.970;2022-12-11T03:43:17;-1.30;99.90
16066;DHT22;8137;48.952;8.970;2022-12-11T03:45:46;-1.30;99.90
16066;DHT22;8137;48.952;8.970;2022-12-11T03:48:14;-1.30;99.90
16066;DHT22;8137;48.952;8.970;2022-12-11T03:50:41;-1.20;99.90
16066;DHT22;8137;48.952;8.970;2022-12-11T03:53:07;-1.20;99.90
16066;DHT22;8137;48.952;8.970;2022-12-11T03:55:35;-1.20;99.90
16066;DHT22;8137;48.952;8.970;2022-12-11T03:58:02;-1.20;99.90
16066;DHT22;8137;48.952;8.970;2022-12-11T04:00:28;-1.20;99.90
16066;DHT22;8137;48.952;8.970;2022-12-11T04:02:54;-1.20;99.90
16066;DHT22;8137;48.952;8.970;2022-12-11T04:05:52;-1.20;99.90
16066;DHT22;8137;48.952;8.970;2022-12-11T04:08:19;-1.20;99.90
16066;DHT22;8137;48.952;8.970;2022-12-11T04:10:45;-1.20;99.90
16066;DHT22;8137;48.952;8.970;2022-12-11T04:13:11;-1.20;99.90
16066;DHT22;8137;48.952;8.970;2022-12-11T04:15:37;-1.20;99.90
16066;DHT22;8137;48.952;8.970;2022-12-11T04:18:03;-1.20;99.90
16066;DHT22;8137;48.952;8.970;2022-12-11T04:20:48;-1.20;99.90
16066;DHT22;8137;48.952;8.970;2022-12-11T04:23:32;-1.20;99.90
16066;DHT22;8137;48.952;8.970;2022-12-11T04:26:19;-1.20;99.90
16066;DHT22;8137;48.952;8.970;2022-12-11T04:28:46;-1.20;99.90
16066;DHT22;8137;48.952;8.970;2022-12-11T04:31:20;-1.20;99.90
16066;DHT22;8137;48.952;8.970;2022-12-11T04:33:46;-1.10;99.90
16066;DHT22;8137;48.952;8.970;2022-12-11T04:36:12;-1.10;99.90
16066;DHT22;8137;48.952;8.970;2022-12-11T04:38:38;-1.20;99.90
16066;DHT22;8137;48.952;8.970;2022-12-11T04:41:07;-1.20;99.90
16066;DHT22;8137;48.952;8.970;2022-12-11T04:43:33;-1.20;99.90
16066;DHT22;8137;48.952;8.970;2022-12-11T04:46:10;-1.30;99.90
16066;DHT22;8137;48.952;8.970;2022-12-11T04:48:37;-1.30;99.90
16066;DHT22;8137;48.952;8.970;2022-12-11T04:51:03;-1.30;99.90
16066;DHT22;8137;48.952;8.970;2022-12-11T04:53:29;-1.30;99.90
16066;DHT22;8137;48.952;8.970;2022-12-11T04:55:55;-1.30;99.90
16066;DHT22;8137;48.952;8.970;2022-12-11T04:58:21;-1.40;99.90
16066;DHT22;8137;48.952;8.970;2022-12-11T05:00:47;-1.50;99.90
16066;DHT22;8137;48.952;8.970;2022-12-11T05:03:13;-1.50;99.90
16066;DHT22;8137;48.952;8.970;2022-12-11T05:05:39;-1.50;99.90
16066;DHT22;8137;48.952;8.970;2022-12-11T05:08:04;-1.50;99.90
16066;DHT22;8137;48.952;8.970;2022-12-11T05:10:30;-1.50;99.90
16066;DHT22;8137;48.952;8.970;2022-12-11T05:12:55;-1.50;99.90
16066;DHT22;8137;48.952;8.970;2022-12-11T05:15:21;-1.50;99.90
16066;DHT22;8137;48.952;8.970;2022-12-11T05:17:47;-1.50;99.90
16066;DHT22;8137;48.952;8.970;2022-12-11T05:20:12;-1.50;99.90
16066;DHT22;8137;48.952;8.970;2022-12-11T05:22:38;-1.50;99.90
16066;DHT22;8137;48.952;8.970;2022-12-11T05:25:04;-1.50;99.90
16066;DHT22;8137;48.952;8.970;2022-12-11T05:27:30;-1.60;99.90
16066;DHT22;8137;48.952;8.970;2022-12-11T05:29:56;-1.60;99.90
16066;DHT22;8137;48.952;8.970;2022-12-11T05:32:21;-1.60;99.90
16066;DHT22;8137;48.952;8.970;2022-12-11T05:34:49;-1.60;99.90
16066;DHT22;8137;48.952;8.970;2022-12-11T05:37:14;-1.60;99.90
16066;DHT22;8137;48.952;8.970;2022-12-11T05:39:40;-1.60;99.90
16066;DHT22;8137;48.952;8.970;2022-12-11T05:42:06;-1.50;99.90
16066;DHT22;8137;48.952;8.970;2022-12-11T05:44:31;-1.60;99.90
16066;DHT22;8137;48.952;8.970;2022-12-11T05:46:57;-1.70;99.90
16066;DHT22;8137;48.952;8.970;2022-12-11T05:49:23;-1.70;99.90
16066;DHT22;8137;48.952;8.970;2022-12-11T05:51:48;-1.70;99.90
16066;DHT22;8137;48.952;8.970;2022-12-11T05:54:14;-1.80;99.90
16066;DHT22;8137;48.952;8.970;2022-12-11T05:56:39;-1.80;99.90
16066;DHT22;8137;48.952;8.970;2022-12-11T05:59:06;-1.90;99.90
16066;DHT22;8137;48.952;8.970;2022-12-11T06:01:40;-1.80;99.90
16066;DHT22;8137;48.952;8.970;2022-12-11T06:04:07;-1.90;99.90
16066;DHT22;8137;48.952;8.970;2022-12-11T06:06:33;-2.00;99.90
16066;DHT22;8137;48.952;8.970;2022-12-11T06:09:00;-2.10;99.90
16066;DHT22;8137;48.952;8.970;2022-12-11T06:11:27;-2.20;99.90
16066;DHT22;8137;48.952;8.970;2022-12-11T06:13:53;-2.20;99.90
16066;DHT22;8137;48.952;8.970;2022-12-11T06:16:20;-2.20;99.90
16066;DHT22;8137;48.952;8.970;2022-12-11T06:18:46;-2.10;99.90
16066;DHT22;8137;48.952;8.970;2022-12-11T06:21:18;-2.10;99.90
16066;DHT22;8137;48.952;8.970;2022-12-11T06:23:44;-2.10;99.90
16066;DHT22;8137;48.952;8.970;2022-12-11T06:26:11;-2.00;99.90
16066;DHT22;8137;48.952;8.970;2022-12-11T06:28:37;-1.90;99.90
16066;DHT22;8137;48.952;8.970;2022-12-11T06:31:04;-1.80;99.90
16066;DHT22;8137;48.952;8.970;2022-12-11T06:33:30;-1.70;99.90
16066;DHT22;8137;48.952;8.970;2022-12-11T06:35:56;-1.70;99.90
16066;DHT22;8137;48.952;8.970;2022-12-11T06:38:25;-1.80;99.90
16066;DHT22;8137;48.952;8.970;2022-12-11T06:40:55;-1.70;99.90
16066;DHT22;8137;48.952;8.970;2022-12-11T06:43:21;-1.70;99.90
16066;DHT22;8137;48.952;8.970;2022-12-11T06:45:47;-1.60;99.90
16066;DHT22;8137;48.952;8.970;2022-12-11T06:48:12;-1.50;99.90
16066;DHT22;8137;48.952;8.970;2022-12-11T06:50:38;-1.40;99.90
16066;DHT22;8137;48.952;8.970;2022-12-11T06:53:03;-1.40;99.90
16066;DHT22;8137;48.952;8.970;2022-12-11T06:55:29;-1.40;99.90
16066;DHT22;8137;48.952;8.970;2022-12-11T06:57:55;-1.40;99.90
16066;DHT22;8137;48.952;8.970;2022-12-11T07:00:20;-1.30;99.90
16066;DHT22;8137;48.952;8.970;2022-12-11T07:02:46;-1.20;99.90
16066;DHT22;8137;48.952;8.970;2022-12-11T07:05:11;-1.20;99.90
16066;DHT22;8137;48.952;8.970;2022-12-11T07:07:37;-1.20;99.90
16066;DHT22;8137;48.952;8.970;2022-12-11T07:10:03;-1.10;99.90
16066;DHT22;8137;48.952;8.970;2022-12-11T07:12:29;-1.20;99.90
16066;DHT22;8137;48.952;8.970;2022-12-11T07:14:54;-1.20;99.90
16066;DHT22;8137;48.952;8.970;2022-12-11T07:17:20;-1.20;99.90
16066;DHT22;8137;48.952;8.970;2022-12-11T07:19:45;-1.20;99.90
16066;DHT22;8137;48.952;8.970;2022-12-11T07:22:11;-1.20;99.90
16066;DHT22;8137;48.952;8.970;2022-12-11T07:24:36;-1.20;99.90
16066;DHT22;8137;48.952;8.970;2022-12-11T07:27:03;-1.10;99.90
16066;DHT22;8137;48.952;8.970;2022-12-11T07:29:28;-1.10;99.90
16066;DHT22;8137;48.952;8.970;2022-12-11T07:31:54;-1.00;99.90
16066;DHT22;8137;48.952;8.970;2022-12-11T07:34:20;-1.00;99.90
16066;DHT22;8137;48.952;8.970;2022-12-11T07:36:45;-1.00;99.90
16066;DHT22;8137;48.952;8.970;2022-12-11T07:39:11;-1.00;99.90
16066;DHT22;8137;48.952;8.970;2022-12-11T07:41:37;-1.00;99.90
16066;DHT22;8137;48.952;8.970;2022-12-11T07:44:04;-1.00;99.90
16066;DHT22;8137;48.952;8.970;2022-12-11T07:46:31;-1.00;99.90
16066;DHT22;8137;48.952;8.970;2022-12-11T07:48:57;-1.10;99.90
16066;DHT22;8137;48.952;8.970;2022-12-11T07:51:27;-1.00;99.90
16066;DHT22;8137;48.952;8.970;2022-12-11T07:53:54;-1.00;99.90
16066;DHT22;8137;48.952;8.970;2022-12-11T07:56:21;-1.00;99.90
16066;DHT22;8137;48.952;8.970;2022-12-11T07:58:46;-0.90;99.90
16066;DHT22;8137;48.952;8.970;2022-12-11T08:01:21;-0.90;99.90
16066;DHT22;8137;48.952;8.970;2022-12-11T08:03:48;-0.90;99.90
16066;DHT22;8137;48.952;8.970;2022-12-11T08:06:13;-0.90;99.90
16066;DHT22;8137;48.952;8.970;2022-12-11T08:08:40;-0.80;99.90
16066;DHT22;8137;48.952;8.970;2022-12-11T08:11:10;-0.80;99.90
16066;DHT22;8137;48.952;8.970;2022-12-11T08:13:36;-0.70;99.90
16066;DHT22;8137;48.952;8.970;2022-12-11T08:16:06;-0.70;99.90
16066;DHT22;8137;48.952;8.970;2022-12-11T08:18:33;-0.70;99.90
16066;DHT22;8137;48.952;8.970;2022-12-11T08:21:13;-0.70;99.90
16066;DHT22;8137;48.952;8.970;2022-12-11T08:23:39;-0.70;99.90
16066;DHT22;8137;48.952;8.970;2022-12-11T08:26:07;-0.70;99.90
16066;DHT22;8137;48.952;8.970;2022-12-11T08:28:33;-0.60;99.90
16066;DHT22;8137;48.952;8.970;2022-12-11T08:30:59;-0.60;99.90
16066;DHT22;8137;48.952;8.970;2022-12-11T08:33:25;-0.60;99.90
16066;DHT22;8137;48.952;8.970;2022-12-11T08:35:50;-0.60;99.90
16066;DHT22;8137;48.952;8.970;2022-12-11T08:38:16;-0.60;99.90
16066;DHT22;8137;48.952;8.970;2022-12-11T08:40:41;-0.60;99.90
16066;DHT22;8137;48.952;8.970;2022-12-11T08:43:07;-0.60;99.90
16066;DHT22;8137;48.952;8.970;2022-12-11T08:45:33;-0.50;99.90
16066;DHT22;8137;48.952;8.970;2022-12-11T08:47:59;-0.50;99.90
16066;DHT22;8137;48.952;8.970;2022-12-11T08:50:24;-0.30;99.90
16066;DHT22;8137;48.952;8.970;2022-12-11T08:52:50;-0.30;99.90
16066;DHT22;8137;48.952;8.970;2022-12-11T08:55:16;-0.20;99.90
16066;DHT22;8137;48.952;8.970;2022-12-11T08:57:41;-0.10;99.90
16066;DHT22;8137;48.952;8.970;2022-12-11T09:00:08;0.00;99.90
16066;DHT22;8137;48.952;8.970;2022-12-11T09:02:36;0.10;99.90
16066;DHT22;8137;48.952;8.970;2022-12-11T09:05:03;0.20;99.90
16066;DHT22;8137;48.952;8.970;2022-12-11T09:07:35;0.20;99.90
16066;DHT22;8137;48.952;8.970;2022-12-11T09:10:03;0.20;99.90
16066;DHT22;8137;48.952;8.970;2022-12-11T09:12:29;0.10;99.90
16066;DHT22;8137;48.952;8.970;2022-12-11T09:14:54;0.10;99.90
16066;DHT22;8137;48.952;8.970;2022-12-11T09:17:20;0.00;99.90
16066;DHT22;8137;48.952;8.970;2022-12-11T09:19:45;0.00;99.90
16066;DHT22;8137;48.952;8.970;2022-12-11T09:22:11;0.00;99.90
16066;DHT22;8137;48.952;8.970;2022-12-11T09:24:38;0.00;99.90
16066;DHT22;8137;48.952;8.970;2022-12-11T09:27:04;0.20;99.90
16066;DHT22;8137;48.952;8.970;2022-12-11T09:29:30;0.30;99.90
16066;DHT22;8137;48.952;8.970;2022-12-11T09:31:56;0.50;99.90
16066;DHT22;8137;48.952;8.970;2022-12-11T09:34:22;0.60;99.90
16066;DHT22;8137;48.952;8.970;2022-12-11T09:36:47;0.80;99.90
16066;DHT22;8137;48.952;8.970;2022-12-11T09:39:14;0.80;99.90
16066;DHT22;8137;48.952;8.970;2022-12-11T09:44:49;1.00;99.90
16066;DHT22;8137;48.952;8.970;2022-12-11T09:47:20;1.30;99.90
16066;DHT22;8137;48.952;8.970;2022-12-11T09:49:50;1.60;99.90
16066;DHT22;8137;48.952;8.970;2022-12-11T09:55:21;1.90;99.90
16066;DHT22;8137;48.952;8.970;2022-12-11T10:00:47;1.90;99.90
16066;DHT22;8137;48.952;8.970;2022-12-11T10:03:38;1.80;99.90
16066;DHT22;8137;48.952;8.970;2022-12-11T10:11:50;1.70;99.90
16066;DHT22;8137;48.952;8.970;2022-12-11T10:14:48;1.60;99.90
16066;DHT22;8137;48.952;8.970;2022-12-11T10:17:24;1.70;99.90
16066;DHT22;8137;48.952;8.970;2022-12-11T10:19:53;1.70;99.90
16066;DHT22;8137;48.952;8.970;2022-12-11T10:22:28;1.70;99.90
16066;DHT22;8137;48.952;8.970;2022-12-11T10:25:04;1.80;99.90
16066;DHT22;8137;48.952;8.970;2022-12-11T10:27:36;1.80;99.90
16066;DHT22;8137;48.952;8.970;2022-12-11T10:30:22;1.90;99.90
16066;DHT22;8137;48.952;8.970;2022-12-11T10:33:06;2.00;99.90
16066;DHT22;8137;48.952;8.970;2022-12-11T10:38:26;2.20;99.90
16066;DHT22;8137;48.952;8.970;2022-12-11T10:41:04;2.20;99.90
16066;DHT22;8137;48.952;8.970;2022-12-11T10:43:42;2.10;99.90
16066;DHT22;8137;48.952;8.970;2022-12-11T10:46:25;2.10;99.90
16066;DHT22;8137;48.952;8.970;2022-12-11T10:48:57;2.00;99.90
16066;DHT22;8137;48.952;8.970;2022-12-11T10:51:34;2.00;99.90
16066;DHT22;8137;48.952;8.970;2022-12-11T10:54:28;2.10;99.90
16066;DHT22;8137;48.952;8.970;2022-12-11T10:56:49;2.10;99.90
16066;DHT22;8137;48.952;8.970;2022-12-11T10:59:23;2.20;99.90
16066;DHT22;8137;48.952;8.970;2022-12-11T11:01:50;2.20;99.90
16066;DHT22;8137;48.952;8.970;2022-12-11T11:04:22;2.10;99.90
16066;DHT22;8137;48.952;8.970;2022-12-11T11:07:09;2.10;99.90
16066;DHT22;8137;48.952;8.970;2022-12-11T11:09:36;1.90;99.90
16066;DHT22;8137;48.952;8.970;2022-12-11T11:12:02;1.80;99.90
16066;DHT22;8137;48.952;8.970;2022-12-11T11:14:28;1.70;99.90
16066;DHT22;8137;48.952;8.970;2022-12-11T11:16:55;1.80;99.90
16066;DHT22;8137;48.952;8.970;2022-12-11T11:19:29;1.90;99.90
16066;DHT22;8137;48.952;8.970;2022-12-11T11:22:04;2.10;99.90
16066;DHT22;8137;48.952;8.970;2022-12-11T11:24:40;2.20;99.90
16066;DHT22;8137;48.952;8.970;2022-12-11T11:29:57;2.30;99.90
16066;DHT22;8137;48.952;8.970;2022-12-11T11:32:32;2.30;99.90
16066;DHT22;8137;48.952;8.970;2022-12-11T11:35:17;2.30;99.90
16066;DHT22;8137;48.952;8.970;2022-12-11T11:43:16;2.40;99.90
16066;DHT22;8137;48.952;8.970;2022-12-11T11:45:50;2.20;99.90
16066;DHT22;8137;48.952;8.970;2022-12-11T11:51:19;2.10;99.90
16066;DHT22;8137;48.952;8.970;2022-12-11T11:53:49;2.10;99.90
16066;DHT22;8137;48.952;8.970;2022-12-11T11:56:26;2.20;99.90
16066;DHT22;8137;48.952;8.970;2022-12-11T12:01:25;2.10;99.90
16066;DHT22;8137;48.952;8.970;2022-12-11T12:03:51;2.00;99.90
16066;DHT22;8137;48.952;8.970;2022-12-11T12:06:27;1.70;99.90
16066;DHT22;8137;48.952;8.970;2022-12-11T12:22:56;1.40;99.90
16066;DHT22;8137;48.952;8.970;2022-12-11T12:25:30;1.50;99.90
16066;DHT22;8137;48.952;8.970;2022-12-11T12:31:04;1.60;99.90
16066;DHT22;8137;48.952;8.970;2022-12-11T12:36:45;1.80;99.90
16066;DHT22;8137;48.952;8.970;2022-12-11T12:39:31;1.90;99.90
16066;DHT22;8137;48.952;8.970;2022-12-11T12:44:52;2.10;99.90
16066;DHT22;8137;48.952;8.970;2022-12-11T12:47:21;2.20;99.90
16066;DHT22;8137;48.952;8.970;2022-12-11T12:49:52;2.40;99.90
16066;DHT22;8137;48.952;8.970;2022-12-11T12:52:24;2.50;99.90
16066;DHT22;8137;48.952;8.970;2022-12-11T12:54:57;2.50;99.90
16066;DHT22;8137;48.952;8.970;2022-12-11T12:57:47;2.70;99.90
16066;DHT22;8137;48.952;8.970;2022-12-11T13:00:34;2.80;99.90
16066;DHT22;8137;48.952;8.970;2022-12-11T13:03:14;2.90;99.90
16066;DHT22;8137;48.952;8.970;2022-12-11T13:05:42;2.80;99.90
16066;DHT22;8137;48.952;8.970;2022-12-11T13:08:10;2.70;99.90
16066;DHT22;8137;48.952;8.970;2022-12-11T13:10:39;2.70;99.90
16066;DHT22;8137;48.952;8.970;2022-12-11T13:13:36;2.70;99.90
16066;DHT22;8137;48.952;8.970;2022-12-11T13:18:43;2.40;99.90
16066;DHT22;8137;48.952;8.970;2022-12-11T13:21:32;2.40;99.90
16066;DHT22;8137;48.952;8.970;2022-12-11T13:24:24;2.40;99.90
16066;DHT22;8137;48.952;8.970;2022-12-11T13:26:50;2.40;99.90
16066;DHT22;8137;48.952;8.970;2022-12-11T13:29:32;2.40;99.90
16066;DHT22;8137;48.952;8.970;2022-12-11T13:34:39;2.30;99.90
16066;DHT22;8137;48.952;8.970;2022-12-11T13:37:06;2.30;99.90
16066;DHT22;8137;48.952;8.970;2022-12-11T13:39:46;2.20;99.90
16066;DHT22;8137;48.952;8.970;2022-12-11T13:42:28;2.20;99.90
16066;DHT22;8137;48.952;8.970;2022-12-11T13:44:56;2.10;99.90
16066;DHT22;8137;48.952;8.970;2022-12-11T13:47:22;2.10;99.90
16066;DHT22;8137;48.952;8.970;2022-12-11T13:49:53;2.10;99.90
16066;DHT22;8137;48.952;8.970;2022-12-11T13:52:23;2.00;99.90
16066;DHT22;8137;48.952;8.970;2022-12-11T13:54:55;2.00;99.90
16066;DHT22;8137;48.952;8.970;2022-12-11T13:57:25;2.00;99.90
16066;DHT22;8137;48.952;8.970;2022-12-11T13:59:53;1.80;99.90
16066;DHT22;8137;48.952;8.970;2022-12-11T14:02:39;1.80;99.90
16066;DHT22;8137;48.952;8.970;2022-12-11T14:05:10;1.80;99.90
16066;DHT22;8137;48.952;8.970;2022-12-11T14:07:42;1.70;99.90
16066;DHT22;8137;48.952;8.970;2022-12-11T14:12:50;1.70;99.90
16066;DHT22;8137;48.952;8.970;2022-12-11T14:15:17;1.60;99.90
16066;DHT22;8137;48.952;8.970;2022-12-11T14:17:43;1.50;99.90
16066;DHT22;8137;48.952;8.970;2022-12-11T14:20:22;1.50;99.90
16066;DHT22;8137;48.952;8.970;2022-12-11T14:22:48;1.30;99.90
16066;DHT22;8137;48.952;8.970;2022-12-11T14:25:23;1.30;99.90
16066;DHT22;8137;48.952;8.970;2022-12-11T14:27:51;1.20;99.90
16066;DHT22;8137;48.952;8.970;2022-12-11T14:30:25;1.10;99.90
16066;DHT22;8137;48.952;8.970;2022-12-11T14:32:58;1.10;99.90
16066;DHT22;8137;48.952;8.970;2022-12-11T14:35:29;1.00;99.90
16066;DHT22;8137;48.952;8.970;2022-12-11T14:37:56;1.00;99.90
16066;DHT22;8137;48.952;8.970;2022-12-11T14:40:29;1.00;99.90
16066;DHT22;8137;48.952;8.970;2022-12-11T14:42:58;0.90;99.90
16066;DHT22;8137;48.952;8.970;2022-12-11T14:45:38;1.00;99.90
16066;DHT22;8137;48.952;8.970;2022-12-11T14:48:11;0.90;99.90
16066;DHT22;8137;48.952;8.970;2022-12-11T14:50:44;0.80;99.90
16066;DHT22;8137;48.952;8.970;2022-12-11T14:53:20;0.70;99.90
16066;DHT22;8137;48.952;8.970;2022-12-11T14:55:48;0.70;99.90
16066;DHT22;8137;48.952;8.970;2022-12-11T14:58:22;0.60;99.90
16066;DHT22;8137;48.952;8.970;2022-12-11T15:01:24;0.50;99.90
16066;DHT22;8137;48.952;8.970;2022-12-11T15:04:04;0.50;99.90
16066;DHT22;8137;48.952;8.970;2022-12-11T15:06:33;0.40;99.90
16066;DHT22;8137;48.952;8.970;2022-12-11T15:09:15;0.40;99.90
16066;DHT22;8137;48.952;8.970;2022-12-11T15:11:41;0.30;99.90
16066;DHT22;8137;48.952;8.970;2022-12-11T15:14:10;0.30;99.90
16066;DHT22;8137;48.952;8.970;2022-12-11T15:16:38;0.20;99.90
16066;DHT22;8137;48.952;8.970;2022-12-11T15:19:05;0.20;99.90
16066;DHT22;8137;48.952;8.970;2022-12-11T15:21:35;0.20;99.90
16066;DHT22;8137;48.952;8.970;2022-12-11T15:24:02;0.20;99.90
16066;DHT22;8137;48.952;8.970;2022-12-11T15:26:37;0.10;99.90
16066;DHT22;8137;48.952;8.970;2022-12-11T15:29:35;0.10;99.90
16066;DHT22;8137;48.952;8.970;2022-12-11T15:34:40;0.00;99.90
16066;DHT22;8137;48.952;8.970;2022-12-11T15:37:23;0.00;99.90
16066;DHT22;8137;48.952;8.970;2022-12-11T15:39:50;-0.10;99.90
16066;DHT22;8137;48.952;8.970;2022-12-11T15:42:29;-0.10;99.90
16066;DHT22;8137;48.952;8.970;2022-12-11T15:44:55;-0.20;99.90
16066;DHT22;8137;48.952;8.970;2022-12-11T15:47:24;-0.20;99.90
16066;DHT22;8137;48.952;8.970;2022-12-11T15:49:54;-0.20;99.90
16066;DHT22;8137;48.952;8.970;2022-12-11T15:52:21;-0.20;99.90
16066;DHT22;8137;48.952;8.970;2022-12-11T15:54:46;-0.20;99.90
16066;DHT22;8137;48.952;8.970;2022-12-11T15:57:16;-0.20;99.90
16066;DHT22;8137;48.952;8.970;2022-12-11T15:59:43;-0.20;99.90
16066;DHT22;8137;48.952;8.970;2022-12-11T16:02:11;-0.20;99.90
16066;DHT22;8137;48.952;8.970;2022-12-11T16:04:38;-0.20;99.90
16066;DHT22;8137;48.952;8.970;2022-12-11T16:07:03;-0.30;99.90
16066;DHT22;8137;48.952;8.970;2022-12-11T16:09:29;-0.30;99.90
16066;DHT22;8137;48.952;8.970;2022-12-11T16:11:56;-0.30;99.90
16066;DHT22;8137;48.952;8.970;2022-12-11T16:14:22;-0.30;99.90
16066;DHT22;8137;48.952;8.970;2022-12-11T16:16:47;-0.30;99.90
16066;DHT22;8137;48.952;8.970;2022-12-11T16:19:13;-0.40;99.90
16066;DHT22;8137;48.952;8.970;2022-12-11T16:21:38;-0.30;99.90
16066;DHT22;8137;48.952;8.970;2022-12-11T16:24:04;-0.40;99.90
16066;DHT22;8137;48.952;8.970;2022-12-11T16:26:30;-0.40;99.90
16066;DHT22;8137;48.952;8.970;2022-12-11T16:28:55;-0.40;99.90
16066;DHT22;8137;48.952;8.970;2022-12-11T16:31:21;-0.50;99.90
16066;DHT22;8137;48.952;8.970;2022-12-11T16:33:47;-0.50;99.90
16066;DHT22;8137;48.952;8.970;2022-12-11T16:36:17;-0.50;99.90
16066;DHT22;8137;48.952;8.970;2022-12-11T16:38:47;-0.50;99.90
16066;DHT22;8137;48.952;8.970;2022-12-11T16:41:13;-0.50;99.90
16066;DHT22;8137;48.952;8.970;2022-12-11T16:43:38;-0.50;99.90
16066;DHT22;8137;48.952;8.970;2022-12-11T16:46:04;-0.60;99.90
16066;DHT22;8137;48.952;8.970;2022-12-11T16:48:30;-0.60;99.90
16066;DHT22;8137;48.952;8.970;2022-12-11T16:50:56;-0.70;99.90
16066;DHT22;8137;48.952;8.970;2022-12-11T16:53:22;-0.80;99.90
16066;DHT22;8137;48.952;8.970;2022-12-11T16:55:48;-0.80;99.90
16066;DHT22;8137;48.952;8.970;2022-12-11T16:58:14;-0.80;99.90
16066;DHT22;8137;48.952;8.970;2022-12-11T17:00:47;-0.80;99.90
16066;DHT22;8137;48.952;8.970;2022-12-11T17:03:14;-0.80;99.90
16066;DHT22;8137;48.952;8.970;2022-12-11T17:05:41;-0.80;99.90
16066;DHT22;8137;48.952;8.970;2022-12-11T17:08:07;-0.90;99.90
16066;DHT22;8137;48.952;8.970;2022-12-11T17:10:38;-0.90;99.90
16066;DHT22;8137;48.952;8.970;2022-12-11T17:13:04;-0.90;99.90
16066;DHT22;8137;48.952;8.970;2022-12-11T17:15:29;-0.90;99.90
16066;DHT22;8137;48.952;8.970;2022-12-11T17:17:55;-1.00;99.90
16066;DHT22;8137;48.952;8.970;2022-12-11T17:20:20;-1.00;99.90
16066;DHT22;8137;48.952;8.970;2022-12-11T17:22:46;-1.00;99.90
16066;DHT22;8137;48.952;8.970;2022-12-11T17:25:12;-1.00;99.90